sensor_id;sensor_type;location;lat;lon;timestamp;temperature;humidity
12557;DHT22;6344;49.932;8.308;2022-07-04T03:19:27;15.60;99.90
12557;DHT22;6344;49.932;8.308;2022-07-04T03:21:54;15.50;99.90
12557;DHT22;6344;49.932;8.308;2022-07-04T03:24:22;15.50;99.90
12557;DHT22;6344;49.932;8.308;2022-07-04T03:26:49;15.50;99.90
12557;DHT22;6344;49.932;8.308;2022-07-04T03:29:15;15.40;99.90
12557;DHT22;6344;49.932;8.308;2022-07-04T03:31:42;15.30;99.90
12557;DHT22;6344;49.932;8.308;2022-07-04T03:34:09;15.30;99.90
12557;DHT22;6344;49.932;8.308;2022-07-04T03:36:35;15.30;99.90
12557;DHT22;6344;49.932;8.308;2022-07-04T03:39:02;15.20;99.90
12557;DHT22;6344;49.932;8.308;2022-07-04T03:41:30;15.20;99.90
12557;DHT22;6344;49.932;8.308;2022-07-04T03:43:57;15.10;99.90
12557;DHT22;6344;49.932;8.308;2022-07-04T03:46:24;15.10;99.90
12557;DHT22;6344;49.932;8.308;2022-07-04T03:48:50;15.10;99.90
12557;DHT22;6344;49.932;8.308;2022-07-04T03:51:18;15.20;99.90
12557;DHT22;6344;49.932;8.308;2022-07-04T03:53:45;15.20;99.90
12557;DHT22;6344;49.932;8.308;2022-07-04T03:56:12;15.30;99.90
12557;DHT22;6344;49.932;8.308;2022-07-04T03:58:40;15.40;99.90
12557;DHT22;6344;49.932;8.308;2022-07-04T04:01:09;15.50;99.90
12557;DHT22;6344;49.932;8.308;2022-07-04T04:03:35;15.60;99.90
12557;DHT22;6344;49.932;8.308;2022-07-04T04:06:20;15.70;99.90
12557;DHT22;6344;49.932;8.308;2022-07-04T04:08:47;15.80;99.90
12557;DHT22;6344;49.932;8.308;2022-07-04T04:11:13;15.90;99.90
12557;DHT22;6344;49.932;8.308;2022-07-04T04:13:41;16.00;99.90
12557;DHT22;6344;49.932;8.308;2022-07-04T04:16:08;16.00;99.90
12557;DHT22;6344;49.932;8.308;2022-07-04T04:18:35;16.00;99.90
12557;DHT22;6344;49.932;8.308;2022-07-04T04:21:02;16.20;99.90
12557;DHT22;6344;49.932;8.308;2022-07-04T04:23:29;16.20;99.90
12557;DHT22;6344;49.932;8.308;2022-07-04T04:25:55;16.20;99.90
12557;DHT22;6344;49.932;8.308;2022-07-04T04:28:22;16.40;99.90
12557;DHT22;6344;49.932;8.308;2022-07-04T04:30:51;16.50;99.90
12557;DHT22;6344;49.932;8.308;2022-07-04T04:33:17;16.60;99.90
12557;DHT22;6344;49.932;8.308;2022-07-04T04:35:44;16.60;99.90
12557;DHT22;6344;49.932;8.308;2022-07-04T04:38:11;16.60;99.90
12557;DHT22;6344;49.932;8.308;2022-07-04T04:40:38;16.60;99.90
12557;DHT22;6344;49.932;8.308;2022-07-04T04:43:04;16.80;99.90
12557;DHT22;6344;49.932;8.308;2022-07-04T04:45:31;16.90;99.90
12557;DHT22;6344;49.932;8.308;2022-07-04T04:47:59;17.00;99.90
12557;DHT22;6344;49.932;8.308;2022-07-04T04:50:26;17.20;99.90
12557;DHT22;6344;49.932;8.308;2022-07-04T04:52:52;17.40;99.90
12557;DHT22;6344;49.932;8.308;2022-07-04T04:55:19;17.40;99.90
12557;DHT22;6344;49.932;8.308;2022-07-04T04:57:46;17.50;99.90
12557;DHT22;6344;49.932;8.308;2022-07-04T05:00:13;17.60;99.90
12557;DHT22;6344;49.932;8.308;2022-07-04T05:02:40;17.70;99.90
12557;DHT22;6344;49.932;8.308;2022-07-04T05:05:08;17.90;99.90
12557;DHT22;6344;49.932;8.308;2022-07-04T05:07:35;18.00;99.90
12557;DHT22;6344;49.932;8.308;2022-07-04T05:10:02;18.10;94.40
12557;DHT22;6344;49.932;8.308;2022-07-04T05:12:29;18.10;91.30
12557;DHT22;6344;49.932;8.308;2022-07-04T05:14:56;18.20;88.60
12557;DHT22;6344;49.932;8.308;2022-07-04T05:17:23;18.40;73.10
12557;DHT22;6344;49.932;8.308;2022-07-04T05:19:50;18.40;67.80
12557;DHT22;6344;49.932;8.308;2022-07-04T05:22:18;18.50;63.60
12557;DHT22;6344;49.932;8.308;2022-07-04T05:24:45;18.50;51.00
12557;DHT22;6344;49.932;8.308;2022-07-04T05:27:12;18.60;46.50
12557;DHT22;6344;49.932;8.308;2022-07-04T05:29:39;18.90;40.40
12557;DHT22;6344;49.932;8.308;2022-07-04T05:32:06;18.90;28.80
12557;DHT22;6344;49.932;8.308;2022-07-04T05:34:33;18.90;22.70
12557;DHT22;6344;49.932;8.308;2022-07-04T05:37:00;18.90;17.30
12557;DHT22;6344;49.932;8.308;2022-07-04T05:39:29;19.10;14.80
12557;DHT22;6344;49.932;8.308;2022-07-04T05:41:56;19.00;11.70
12557;DHT22;6344;49.932;8.308;2022-07-04T05:44:23;19.00;9.10
12557;DHT22;6344;49.932;8.308;2022-07-04T05:46:49;19.10;7.90
12557;DHT22;6344;49.932;8.308;2022-07-04T05:49:16;19.30;5.20
12557;DHT22;6344;49.932;8.308;2022-07-04T05:51:43;19.60;3.30
12557;DHT22;6344;49.932;8.308;2022-07-04T05:54:10;19.80;1.00
12557;DHT22;6344;49.932;8.308;2022-07-04T05:56:38;19.80;1.00
12557;DHT22;6344;49.932;8.308;2022-07-04T05:59:07;19.90;1.00
12557;DHT22;6344;49.932;8.308;2022-07-04T06:01:34;19.80;1.00
12557;DHT22;6344;49.932;8.308;2022-07-04T06:04:01;20.00;1.00
12557;DHT22;6344;49.932;8.308;2022-07-04T06:06:27;20.20;1.00
12557;DHT22;6344;49.932;8.308;2022-07-04T06:08:55;20.30;1.00
12557;DHT22;6344;49.932;8.308;2022-07-04T06:11:22;20.80;1.00
12557;DHT22;6344;49.932;8.308;2022-07-04T06:13:50;21.00;1.00
12557;DHT22;6344;49.932;8.308;2022-07-04T06:16:16;21.50;1.00
12557;DHT22;6344;49.932;8.308;2022-07-04T06:18:43;22.20;1.00
12557;DHT22;6344;49.932;8.308;2022-07-04T06:21:10;22.30;1.00
12557;DHT22;6344;49.932;8.308;2022-07-04T06:23:37;22.60;1.00
12557;DHT22;6344;49.932;8.308;2022-07-04T06:26:04;23.10;1.00
12557;DHT22;6344;49.932;8.308;2022-07-04T06:28:31;23.00;1.00
12557;DHT22;6344;49.932;8.308;2022-07-04T06:30:59;23.30;1.00
12557;DHT22;6344;49.932;8.308;2022-07-04T06:33:26;23.10;1.00
12557;DHT22;6344;49.932;8.308;2022-07-04T06:35:52;22.60;1.00
12557;DHT22;6344;49.932;8.308;2022-07-04T06:38:22;23.20;1.00
12557;DHT22;6344;49.932;8.308;2022-07-04T06:40:50;22.80;1.00
12557;DHT22;6344;49.932;8.308;2022-07-04T06:43:17;22.90;1.00
12557;DHT22;6344;49.932;8.308;2022-07-04T06:45:43;22.80;1.00
12557;DHT22;6344;49.932;8.308;2022-07-04T06:48:12;23.10;1.00
12557;DHT22;6344;49.932;8.308;2022-07-04T06:50:38;23.40;1.00
12557;DHT22;6344;49.932;8.308;2022-07-04T06:53:06;23.30;1.00
12557;DHT22;6344;49.932;8.308;2022-07-04T06:55:33;23.70;1.00
12557;DHT22;6344;49.932;8.308;2022-07-04T06:58:00;23.70;1.00
12557;DHT22;6344;49.932;8.308;2022-07-04T07:00:27;23.70;1.00
12557;DHT22;6344;49.932;8.308;2022-07-04T07:02:56;24.00;1.00
12557;DHT22;6344;49.932;8.308;2022-07-04T07:05:25;24.10;1.00
12557;DHT22;6344;49.932;8.308;2022-07-04T07:07:52;24.30;1.00
12557;DHT22;6344;49.932;8.308;2022-07-04T07:10:18;24.50;1.00
12557;DHT22;6344;49.932;8.308;2022-07-04T07:12:45;24.60;1.00
12557;DHT22;6344;49.932;8.308;2022-07-04T07:15:12;25.10;1.00
12557;DHT22;6344;49.932;8.308;2022-07-04T07:17:39;25.30;1.00
12557;DHT22;6344;49.932;8.308;2022-07-04T07:20:07;25.30;1.00
12557;DHT22;6344;49.932;8.308;2022-07-04T07:22:35;25.50;1.00
12557;DHT22;6344;49.932;8.308;2022-07-04T07:25:02;25.00;1.00
12557;DHT22;6344;49.932;8.308;2022-07-04T07:27:29;26.00;1.00
12557;DHT22;6344;49.932;8.308;2022-07-04T07:29:55;25.80;1.00
12557;DHT22;6344;49.932;8.308;2022-07-04T07:32:22;26.40;1.00
12557;DHT22;6344;49.932;8.308;2022-07-04T07:34:49;26.80;1.00
12557;DHT22;6344;49.932;8.308;2022-07-04T07:37:15;27.10;1.00
12557;DHT22;6344;49.932;8.308;2022-07-04T07:39:44;26.70;1.00
12557;DHT22;6344;49.932;8.308;2022-07-04T07:42:11;26.50;1.00
12557;DHT22;6344;49.932;8.308;2022-07-04T07:44:37;26.90;1.00
12557;DHT22;6344;49.932;8.308;2022-07-04T07:47:04;27.20;1.00
12557;DHT22;6344;49.932;8.308;2022-07-04T07:49:31;26.60;1.00
12557;DHT22;6344;49.932;8.308;2022-07-04T07:51:58;26.80;1.00
12557;DHT22;6344;49.932;8.308;2022-07-04T07:54:24;27.00;1.00
12557;DHT22;6344;49.932;8.308;2022-07-04T07:56:52;27.60;1.00
12557;DHT22;6344;49.932;8.308;2022-07-04T07:59:19;27.10;1.00
12557;DHT22;6344;49.932;8.308;2022-07-04T08:01:46;27.20;1.00
12557;DHT22;6344;49.932;8.308;2022-07-04T08:04:12;27.80;1.00
12557;DHT22;6344;49.932;8.308;2022-07-04T08:06:57;28.00;1.00
12557;DHT22;6344;49.932;8.308;2022-07-04T08:09:23;28.40;1.00
12557;DHT22;6344;49.932;8.308;2022-07-04T08:11:50;28.90;1.00
12557;DHT22;6344;49.932;8.308;2022-07-04T08:14:18;28.50;1.00
12557;DHT22;6344;49.932;8.308;2022-07-04T08:16:45;27.80;1.00
12557;DHT22;6344;49.932;8.308;2022-07-04T08:19:12;27.60;1.00
12557;DHT22;6344;49.932;8.308;2022-07-04T08:21:38;27.60;1.00
12557;DHT22;6344;49.932;8.308;2022-07-04T08:24:05;28.10;1.00
12557;DHT22;6344;49.932;8.308;2022-07-04T08:26:33;28.40;1.00
12557;DHT22;6344;49.932;8.308;2022-07-04T08:28:59;28.20;1.00
12557;DHT22;6344;49.932;8.308;2022-07-04T08:31:28;28.00;1.00
12557;DHT22;6344;49.932;8.308;2022-07-04T08:33:54;28.80;1.00
12557;DHT22;6344;49.932;8.308;2022-07-04T08:36:21;28.80;1.00
12557;DHT22;6344;49.932;8.308;2022-07-04T08:38:48;28.80;1.00
12557;DHT22;6344;49.932;8.308;2022-07-04T08:41:16;28.50;1.00
12557;DHT22;6344;49.932;8.308;2022-07-04T08:43:44;29.00;1.00
12557;DHT22;6344;49.932;8.308;2022-07-04T08:46:15;29.70;1.00
12557;DHT22;6344;49.932;8.308;2022-07-04T08:48:50;29.00;1.00
12557;DHT22;6344;49.932;8.308;2022-07-04T08:51:21;29.60;1.00
12557;DHT22;6344;49.932;8.308;2022-07-04T08:53:52;29.90;1.00
12557;DHT22;6344;49.932;8.308;2022-07-04T08:56:22;30.60;1.00
12557;DHT22;6344;49.932;8.308;2022-07-04T08:59:07;31.20;1.00
12557;DHT22;6344;49.932;8.308;2022-07-04T09:01:35;30.90;1.00
12557;DHT22;6344;49.932;8.308;2022-07-04T09:04:04;31.20;1.00
12557;DHT22;6344;49.932;8.308;2022-07-04T09:06:31;30.80;1.00
12557;DHT22;6344;49.932;8.308;2022-07-04T09:08:59;30.20;1.00
12557;DHT22;6344;49.932;8.308;2022-07-04T09:11:28;30.70;1.00
12557;DHT22;6344;49.932;8.308;2022-07-04T09:13:56;30.90;1.00
12557;DHT22;6344;49.932;8.308;2022-07-04T09:43:23;30.20;1.00
12557;DHT22;6344;49.932;8.308;2022-07-04T09:45:54;31.10;1.00
12557;DHT22;6344;49.932;8.308;2022-07-04T09:48:22;31.30;1.00
12557;DHT22;6344;49.932;8.308;2022-07-04T09:50:49;30.80;1.00
12557;DHT22;6344;49.932;8.308;2022-07-04T09:53:16;31.20;1.00
12557;DHT22;6344;49.932;8.308;2022-07-04T09:55:43;32.00;1.00
12557;DHT22;6344;49.932;8.308;2022-07-04T09:58:15;31.80;1.00
12557;DHT22;6344;49.932;8.308;2022-07-04T10:00:44;31.90;1.00
12557;DHT22;6344;49.932;8.308;2022-07-04T10:03:17;32.10;1.00
12557;DHT22;6344;49.932;8.308;2022-07-04T10:05:45;31.20;1.00
12557;DHT22;6344;49.932;8.308;2022-07-04T10:08:12;31.70;1.00
12557;DHT22;6344;49.932;8.308;2022-07-04T10:10:40;31.60;1.00
12557;DHT22;6344;49.932;8.308;2022-07-04T10:13:10;30.10;1.00
12557;DHT22;6344;49.932;8.308;2022-07-04T10:15:39;29.10;1.00
12557;DHT22;6344;49.932;8.308;2022-07-04T10:18:09;28.10;1.00
12557;DHT22;6344;49.932;8.308;2022-07-04T10:20:36;28.80;1.00
12557;DHT22;6344;49.932;8.308;2022-07-04T10:23:03;29.90;1.00
12557;DHT22;6344;49.932;8.308;2022-07-04T10:25:30;30.60;1.00
12557;DHT22;6344;49.932;8.308;2022-07-04T10:27:57;31.40;1.00
12557;DHT22;6344;49.932;8.308;2022-07-04T10:30:26;32.90;1.00
12557;DHT22;6344;49.932;8.308;2022-07-04T10:32:54;32.70;1.00
12557;DHT22;6344;49.932;8.308;2022-07-04T10:35:52;33.40;1.00
12557;DHT22;6344;49.932;8.308;2022-07-04T10:38:21;33.80;1.00
12557;DHT22;6344;49.932;8.308;2022-07-04T10:40:49;33.60;1.00
12557;DHT22;6344;49.932;8.308;2022-07-04T10:46:32;32.60;1.00
12557;DHT22;6344;49.932;8.308;2022-07-04T10:49:02;32.80;1.00
12557;DHT22;6344;49.932;8.308;2022-07-04T10:51:36;32.10;1.00
12557;DHT22;6344;49.932;8.308;2022-07-04T10:54:06;31.90;1.00
12557;DHT22;6344;49.932;8.308;2022-07-04T10:56:39;32.60;1.00
12557;DHT22;6344;49.932;8.308;2022-07-04T10:59:11;32.80;1.00
12557;DHT22;6344;49.932;8.308;2022-07-04T11:01:38;32.80;1.00
12557;DHT22;6344;49.932;8.308;2022-07-04T11:04:05;33.30;1.00
12557;DHT22;6344;49.932;8.308;2022-07-04T11:06:52;33.50;1.00
12557;DHT22;6344;49.932;8.308;2022-07-04T11:09:21;32.20;1.00
12557;DHT22;6344;49.932;8.308;2022-07-04T11:11:49;32.80;1.00
12557;DHT22;6344;49.932;8.308;2022-07-04T11:14:34;32.40;1.00
12557;DHT22;6344;49.932;8.308;2022-07-04T11:17:02;32.50;1.00
12557;DHT22;6344;49.932;8.308;2022-07-04T11:19:29;33.30;1.00
12557;DHT22;6344;49.932;8.308;2022-07-04T11:21:58;33.70;1.00
12557;DHT22;6344;49.932;8.308;2022-07-04T11:24:25;34.90;1.00
12557;DHT22;6344;49.932;8.308;2022-07-04T11:26:52;34.00;1.00
12557;DHT22;6344;49.932;8.308;2022-07-04T11:29:19;33.90;1.00
12557;DHT22;6344;49.932;8.308;2022-07-04T11:31:48;33.60;1.00
12557;DHT22;6344;49.932;8.308;2022-07-04T11:34:14;33.30;1.00
12557;DHT22;6344;49.932;8.308;2022-07-04T11:36:42;33.10;1.00
12557;DHT22;6344;49.932;8.308;2022-07-04T11:39:13;33.30;1.00
12557;DHT22;6344;49.932;8.308;2022-07-04T11:41:45;33.60;1.00
12557;DHT22;6344;49.932;8.308;2022-07-04T11:44:31;33.30;1.00
12557;DHT22;6344;49.932;8.308;2022-07-04T11:47:17;33.20;1.00
12557;DHT22;6344;49.932;8.308;2022-07-04T11:49:47;33.30;1.00
12557;DHT22;6344;49.932;8.308;2022-07-04T11:52:14;33.60;1.00
12557;DHT22;6344;49.932;8.308;2022-07-04T11:54:44;32.70;1.00
12557;DHT22;6344;49.932;8.308;2022-07-04T11:57:17;32.00;1.00
12557;DHT22;6344;49.932;8.308;2022-07-04T11:59:56;32.40;1.00
12557;DHT22;6344;49.932;8.308;2022-07-04T12:02:24;32.40;1.00
12557;DHT22;6344;49.932;8.308;2022-07-04T12:04:51;32.60;1.00
12557;DHT22;6344;49.932;8.308;2022-07-04T12:07:19;32.90;1.00
12557;DHT22;6344;49.932;8.308;2022-07-04T12:09:48;33.50;1.00
12557;DHT22;6344;49.932;8.308;2022-07-04T12:12:15;33.40;1.00
12557;DHT22;6344;49.932;8.308;2022-07-04T12:15:00;33.30;1.00
12557;DHT22;6344;49.932;8.308;2022-07-04T12:17:32;34.50;1.00
12557;DHT22;6344;49.932;8.308;2022-07-04T12:20:00;34.00;1.00
12557;DHT22;6344;49.932;8.308;2022-07-04T12:22:29;32.70;1.00
12557;DHT22;6344;49.932;8.308;2022-07-04T12:24:59;33.00;1.00
12557;DHT22;6344;49.932;8.308;2022-07-04T12:27:26;33.10;1.00
12557;DHT22;6344;49.932;8.308;2022-07-04T12:29:54;33.50;1.00
12557;DHT22;6344;49.932;8.308;2022-07-04T12:32:21;33.30;1.00
12557;DHT22;6344;49.932;8.308;2022-07-04T12:34:48;33.70;1.00
12557;DHT22;6344;49.932;8.308;2022-07-04T12:37:16;33.80;1.00
12557;DHT22;6344;49.932;8.308;2022-07-04T12:39:44;34.00;1.00
12557;DHT22;6344;49.932;8.308;2022-07-04T12:42:14;34.60;1.00
12557;DHT22;6344;49.932;8.308;2022-07-04T12:44:42;35.00;1.00
12557;DHT22;6344;49.932;8.308;2022-07-04T12:47:11;34.80;1.00
12557;DHT22;6344;49.932;8.308;2022-07-04T12:49:42;34.20;1.00
12557;DHT22;6344;49.932;8.308;2022-07-04T12:52:12;34.50;1.00
12557;DHT22;6344;49.932;8.308;2022-07-04T12:54:39;34.40;1.00
12557;DHT22;6344;49.932;8.308;2022-07-04T12:57:11;32.60;1.00
12557;DHT22;6344;49.932;8.308;2022-07-04T12:59:40;32.10;1.00
12557;DHT22;6344;49.932;8.308;2022-07-04T13:02:07;32.30;1.00
12557;DHT22;6344;49.932;8.308;2022-07-04T13:04:34;32.80;1.00
12557;DHT22;6344;49.932;8.308;2022-07-04T13:07:12;32.80;1.00
12557;DHT22;6344;49.932;8.308;2022-07-04T13:09:41;33.20;1.00
12557;DHT22;6344;49.932;8.308;2022-07-04T13:12:08;33.70;1.00
12557;DHT22;6344;49.932;8.308;2022-07-04T13:14:57;33.30;1.00
12557;DHT22;6344;49.932;8.308;2022-07-04T13:17:25;33.70;1.00
12557;DHT22;6344;49.932;8.308;2022-07-04T13:19:52;34.70;1.00
12557;DHT22;6344;49.932;8.308;2022-07-04T13:22:20;34.60;1.00
12557;DHT22;6344;49.932;8.308;2022-07-04T13:24:47;34.10;1.00
12557;DHT22;6344;49.932;8.308;2022-07-04T13:27:14;33.90;1.00
12557;DHT22;6344;49.932;8.308;2022-07-04T13:29:41;34.70;1.00
12557;DHT22;6344;49.932;8.308;2022-07-04T13:32:09;34.50;1.00
12557;DHT22;6344;49.932;8.308;2022-07-04T13:34:36;35.00;1.00
12557;DHT22;6344;49.932;8.308;2022-07-04T13:37:04;35.70;1.00
12557;DHT22;6344;49.932;8.308;2022-07-04T13:39:31;35.50;1.00
12557;DHT22;6344;49.932;8.308;2022-07-04T13:41:58;34.30;1.00
12557;DHT22;6344;49.932;8.308;2022-07-04T13:44:25;33.80;1.00
12557;DHT22;6344;49.932;8.308;2022-07-04T13:46:51;33.00;1.00
12557;DHT22;6344;49.932;8.308;2022-07-04T13:49:19;33.90;1.00
12557;DHT22;6344;49.932;8.308;2022-07-04T13:51:46;34.30;1.00
12557;DHT22;6344;49.932;8.308;2022-07-04T13:54:13;34.90;1.00
12557;DHT22;6344;49.932;8.308;2022-07-04T13:56:40;35.30;1.00
12557;DHT22;6344;49.932;8.308;2022-07-04T13:59:07;34.30;1.00
12557;DHT22;6344;49.932;8.308;2022-07-04T14:01:35;34.00;1.00
12557;DHT22;6344;49.932;8.308;2022-07-04T14:04:02;34.10;1.00
12557;DHT22;6344;49.932;8.308;2022-07-04T14:06:30;34.00;1.00
12557;DHT22;6344;49.932;8.308;2022-07-04T14:08:58;34.30;1.00
12557;DHT22;6344;49.932;8.308;2022-07-04T14:11:24;34.60;1.00
12557;DHT22;6344;49.932;8.308;2022-07-04T14:13:51;34.10;1.00
12557;DHT22;6344;49.932;8.308;2022-07-04T14:16:18;34.70;1.00
12557;DHT22;6344;49.932;8.308;2022-07-04T14:18:44;35.50;1.00
12557;DHT22;6344;49.932;8.308;2022-07-04T14:21:11;36.40;1.00
12557;DHT22;6344;49.932;8.308;2022-07-04T14:23:39;36.00;1.00
12557;DHT22;6344;49.932;8.308;2022-07-04T14:26:12;36.60;1.00
12557;DHT22;6344;49.932;8.308;2022-07-04T14:28:39;35.70;1.00
12557;DHT22;6344;49.932;8.308;2022-07-04T14:31:07;36.30;1.00
12557;DHT22;6344;49.932;8.308;2022-07-04T14:33:34;35.10;1.00
12557;DHT22;6344;49.932;8.308;2022-07-04T14:36:01;34.70;1.00
12557;DHT22;6344;49.932;8.308;2022-07-04T14:38:28;34.80;1.00
12557;DHT22;6344;49.932;8.308;2022-07-04T14:40:56;33.60;1.00
12557;DHT22;6344;49.932;8.308;2022-07-04T14:43:35;33.80;1.00
12557;DHT22;6344;49.932;8.308;2022-07-04T14:46:02;33.60;1.00
12557;DHT22;6344;49.932;8.308;2022-07-04T14:48:29;33.10;1.00
12557;DHT22;6344;49.932;8.308;2022-07-04T14:50:56;33.60;1.00
12557;DHT22;6344;49.932;8.308;2022-07-04T14:53:22;33.70;1.00
12557;DHT22;6344;49.932;8.308;2022-07-04T14:55:50;33.50;1.00
12557;DHT22;6344;49.932;8.308;2022-07-04T14:58:18;32.50;1.00
12557;DHT22;6344;49.932;8.308;2022-07-04T15:00:45;32.10;1.00
12557;DHT22;6344;49.932;8.308;2022-07-04T15:03:12;32.50;1.00
12557;DHT22;6344;49.932;8.308;2022-07-04T15:05:39;32.60;1.00
12557;DHT22;6344;49.932;8.308;2022-07-04T15:08:05;31.70;1.00
12557;DHT22;6344;49.932;8.308;2022-07-04T15:10:32;31.40;1.00
12557;DHT22;6344;49.932;8.308;2022-07-04T15:12:59;30.20;1.00
12557;DHT22;6344;49.932;8.308;2022-07-04T15:15:27;30.50;1.00
12557;DHT22;6344;49.932;8.308;2022-07-04T15:17:53;30.20;1.00
12557;DHT22;6344;49.932;8.308;2022-07-04T15:20:20;30.60;1.00
12557;DHT22;6344;49.932;8.308;2022-07-04T15:23:05;31.30;1.00
12557;DHT22;6344;49.932;8.308;2022-07-04T15:25:49;31.10;1.00
12557;DHT22;6344;49.932;8.308;2022-07-04T15:28:15;31.70;1.00
12557;DHT22;6344;49.932;8.308;2022-07-04T15:30:43;32.20;1.00
12557;DHT22;6344;49.932;8.308;2022-07-04T15:33:10;32.10;1.00
12557;DHT22;6344;49.932;8.308;2022-07-04T15:35:40;31.80;1.00
12557;DHT22;6344;49.932;8.308;2022-07-04T15:38:07;32.00;1.00
12557;DHT22;6344;49.932;8.308;2022-07-04T15:40:34;31.70;1.00
12557;DHT22;6344;49.932;8.308;2022-07-04T15:43:01;32.00;1.00
12557;DHT22;6344;49.932;8.308;2022-07-04T15:45:28;32.40;1.00
12557;DHT22;6344;49.932;8.308;2022-07-04T15:47:56;33.50;1.00
12557;DHT22;6344;49.932;8.308;2022-07-04T15:50:22;33.10;1.00
12557;DHT22;6344;49.932;8.308;2022-07-04T15:52:50;32.90;1.00
12557;DHT22;6344;49.932;8.308;2022-07-04T15:55:16;33.40;1.00
12557;DHT22;6344;49.932;8.308;2022-07-04T15:57:44;31.90;1.00
12557;DHT22;6344;49.932;8.308;2022-07-04T16:00:14;31.80;1.00
12557;DHT22;6344;49.932;8.308;2022-07-04T16:02:41;33.00;1.00
12557;DHT22;6344;49.932;8.308;2022-07-04T16:05:10;32.80;1.00
12557;DHT22;6344;49.932;8.308;2022-07-04T16:07:37;32.50;1.00
12557;DHT22;6344;49.932;8.308;2022-07-04T16:10:05;32.90;1.00
12557;DHT22;6344;49.932;8.308;2022-07-04T16:12:32;33.00;1.00
12557;DHT22;6344;49.932;8.308;2022-07-04T16:14:59;34.30;99.90
12557;DHT22;6344;49.932;8.308;2022-07-04T16:17:25;34.80;1.00
12557;DHT22;6344;49.932;8.308;2022-07-04T16:40:12;31.30;99.90
12557;DHT22;6344;49.932;8.308;2022-07-04T16:42:39;31.40;1.00
12557;DHT22;6344;49.932;8.308;2022-07-04T16:45:07;31.00;1.00
12557;DHT22;6344;49.932;8.308;2022-07-04T16:47:35;30.80;1.00
12557;DHT22;6344;49.932;8.308;2022-07-04T16:50:05;31.00;1.00
12557;DHT22;6344;49.932;8.308;2022-07-04T16:52:33;30.40;1.00
12557;DHT22;6344;49.932;8.308;2022-07-04T16:54:59;30.20;1.00
12557;DHT22;6344;49.932;8.308;2022-07-04T16:57:27;30.60;1.00
12557;DHT22;6344;49.932;8.308;2022-07-04T16:59:54;31.70;1.00
12557;DHT22;6344;49.932;8.308;2022-07-04T17:02:21;31.10;1.00
12557;DHT22;6344;49.932;8.308;2022-07-04T17:04:49;31.40;1.00
12557;DHT22;6344;49.932;8.308;2022-07-04T17:07:16;31.60;99.90
12557;DHT22;6344;49.932;8.308;2022-07-04T17:09:43;31.00;1.00
12557;DHT22;6344;49.932;8.308;2022-07-04T17:12:10;30.10;1.00
12557;DHT22;6344;49.932;8.308;2022-07-04T17:14:38;30.00;99.90
12557;DHT22;6344;49.932;8.308;2022-07-04T17:17:05;30.40;99.90
12557;DHT22;6344;49.932;8.308;2022-07-04T17:19:32;30.20;99.90
12557;DHT22;6344;49.932;8.308;2022-07-04T17:21:59;30.00;1.00
12557;DHT22;6344;49.932;8.308;2022-07-04T17:24:26;30.10;1.00
12557;DHT22;6344;49.932;8.308;2022-07-04T17:26:52;29.70;1.00
12557;DHT22;6344;49.932;8.308;2022-07-04T17:29:19;30.00;1.00
12557;DHT22;6344;49.932;8.308;2022-07-04T17:31:47;30.10;1.00
12557;DHT22;6344;49.932;8.308;2022-07-04T17:34:14;29.70;1.00
12557;DHT22;6344;49.932;8.308;2022-07-04T17:36:40;29.30;1.00
12557;DHT22;6344;49.932;8.308;2022-07-04T17:39:07;29.50;99.90
12557;DHT22;6344;49.932;8.308;2022-07-04T17:41:34;29.50;99.90
12557;DHT22;6344;49.932;8.308;2022-07-04T17:44:08;29.10;1.00
12557;DHT22;6344;49.932;8.308;2022-07-04T17:46:35;28.90;1.00
12557;DHT22;6344;49.932;8.308;2022-07-04T17:49:05;28.90;1.00
12557;DHT22;6344;49.932;8.308;2022-07-04T17:58:01;28.80;1.00
12557;DHT22;6344;49.932;8.308;2022-07-04T18:00:28;28.10;1.00
12557;DHT22;6344;49.932;8.308;2022-07-04T18:02:55;28.50;1.00
12557;DHT22;6344;49.932;8.308;2022-07-04T18:05:23;28.40;99.90
12557;DHT22;6344;49.932;8.308;2022-07-04T18:07:50;28.70;1.00
12557;DHT22;6344;49.932;8.308;2022-07-04T18:10:17;28.50;1.00
12557;DHT22;6344;49.932;8.308;2022-07-04T18:12:43;28.10;1.00
12557;DHT22;6344;49.932;8.308;2022-07-04T18:15:11;27.80;1.00
12557;DHT22;6344;49.932;8.308;2022-07-04T18:17:38;27.00;1.00
12557;DHT22;6344;49.932;8.308;2022-07-04T18:20:05;27.00;1.00
12557;DHT22;6344;49.932;8.308;2022-07-04T18:22:34;26.80;1.00
12557;DHT22;6344;49.932;8.308;2022-07-04T18:25:00;26.80;1.00
12557;DHT22;6344;49.932;8.308;2022-07-04T18:27:29;25.90;1.00
12557;DHT22;6344;49.932;8.308;2022-07-04T18:29:55;25.70;1.00
12557;DHT22;6344;49.932;8.308;2022-07-04T18:32:22;24.90;99.90
12557;DHT22;6344;49.932;8.308;2022-07-04T18:34:49;24.80;1.00
12557;DHT22;6344;49.932;8.308;2022-07-04T18:37:16;24.80;1.00
12557;DHT22;6344;49.932;8.308;2022-07-04T18:39:44;24.50;99.90
12557;DHT22;6344;49.932;8.308;2022-07-04T18:42:10;24.30;1.00
12557;DHT22;6344;49.932;8.308;2022-07-04T18:44:55;24.20;1.00
12557;DHT22;6344;49.932;8.308;2022-07-04T18:47:21;24.10;1.00
12557;DHT22;6344;49.932;8.308;2022-07-04T18:59:56;23.60;1.00
12557;DHT22;6344;49.932;8.308;2022-07-04T19:05:48;23.40;1.00
12557;DHT22;6344;49.932;8.308;2022-07-04T19:08:14;23.30;1.00
12557;DHT22;6344;49.932;8.308;2022-07-04T19:10:41;23.10;1.00
12557;DHT22;6344;49.932;8.308;2022-07-04T19:13:09;23.00;1.00
12557;DHT22;6344;49.932;8.308;2022-07-04T19:15:38;22.90;1.00
12557;DHT22;6344;49.932;8.308;2022-07-04T19:18:06;22.80;1.00
12557;DHT22;6344;49.932;8.308;2022-07-04T19:23:01;22.60;1.00
12557;DHT22;6344;49.932;8.308;2022-07-04T19:25:28;22.70;1.00
12557;DHT22;6344;49.932;8.308;2022-07-04T19:27:55;22.60;1.00
12557;DHT22;6344;49.932;8.308;2022-07-04T19:30:22;22.50;1.00
12557;DHT22;6344;49.932;8.308;2022-07-04T19:32:50;22.40;1.00
12557;DHT22;6344;49.932;8.308;2022-07-04T19:35:17;22.30;1.00
12557;DHT22;6344;49.932;8.308;2022-07-04T19:37:45;22.20;1.00
12557;DHT22;6344;49.932;8.308;2022-07-04T19:40:12;22.10;1.00
12557;DHT22;6344;49.932;8.308;2022-07-04T19:42:39;21.90;1.00
12557;DHT22;6344;49.932;8.308;2022-07-04T19:45:07;21.80;1.00
12557;DHT22;6344;49.932;8.308;2022-07-04T19:50:02;21.50;1.00
12557;DHT22;6344;49.932;8.308;2022-07-04T19:52:29;21.50;1.00
12557;DHT22;6344;49.932;8.308;2022-07-04T19:55:02;21.30;1.00
12557;DHT22;6344;49.932;8.308;2022-07-04T22:37:30;17.40;1.00
12557;DHT22;6344;49.932;8.308;2022-07-04T22:39:57;17.10;1.00
12557;DHT22;6344;49.932;8.308;2022-07-04T22:42:25;17.20;1.00
12557;DHT22;6344;49.932;8.308;2022-07-04T22:44:52;17.30;1.00
12557;DHT22;6344;49.932;8.308;2022-07-04T22:47:19;17.30;1.00
12557;DHT22;6344;49.932;8.308;2022-07-04T22:49:45;17.20;1.00
12557;DHT22;6344;49.932;8.308;2022-07-04T22:52:12;17.20;1.00
12557;DHT22;6344;49.932;8.308;2022-07-04T22:54:39;17.20;1.00
12557;DHT22;6344;49.932;8.308;2022-07-04T22:57:19;17.10;1.00
12557;DHT22;6344;49.932;8.308;2022-07-04T22:59:47;17.20;1.00
12557;DHT22;6344;49.932;8.308;2022-07-04T23:02:15;17.10;1.00
12557;DHT22;6344;49.932;8.308;2022-07-04T23:04:42;17.10;1.00
12557;DHT22;6344;49.932;8.308;2022-07-04T23:07:09;17.10;1.00
12557;DHT22;6344;49.932;8.308;2022-07-04T23:09:36;17.20;1.00
12557;DHT22;6344;49.932;8.308;2022-07-04T23:12:04;17.10;1.00
12557;DHT22;6344;49.932;8.308;2022-07-04T23:14:30;17.00;1.00
12557;DHT22;6344;49.932;8.308;2022-07-04T23:16:59;17.00;1.00
12557;DHT22;6344;49.932;8.308;2022-07-04T23:19:25;16.90;1.00